<?xml version="1.0" encoding="UTF-8" standalone="no" ?>
<gpx xmlns="http://www.topografix.com/GPX/1/1" xmlns:xsi="http://www.w3.org/2001/XMLSchema-instance" xsi:schemaLocation="http://www.topografix.com/GPX/1/1 http://www.topografix.com/GPX/1/1/gpx.xsd" version="1.1" creator="VisuGPX - https://www.visugpx.com">
  <metadata>
    <name>83 - L - Cotignac</name>
    <desc><![CDATA[83 - L - Cotignac - circuit du petit Poucet]]></desc>
  </metadata>
  <trk>
    <name><![CDATA[cotignac-circuit-du-petit-poucet - Sara]]></name>
    <trkseg>
      <trkpt lat="43.52783" lon="6.15311">
        <ele>239</ele>
        <time>2026-03-23T08:21:57Z</time>
      </trkpt>
      <trkpt lat="43.52768" lon="6.15294">
        <ele>238</ele>
        <time>2026-03-23T08:22:20Z</time>
      </trkpt>
      <trkpt lat="43.5273" lon="6.15251">
        <ele>233</ele>
        <time>2026-03-23T08:23:16Z</time>
      </trkpt>
      <trkpt lat="43.52718" lon="6.15247">
        <ele>232</ele>
        <time>2026-03-23T08:23:30Z</time>
      </trkpt>
      <trkpt lat="43.52707" lon="6.15212">
        <ele>230</ele>
        <time>2026-03-23T08:24:02Z</time>
      </trkpt>
      <trkpt lat="43.52713" lon="6.15201">
        <ele>230</ele>
        <time>2026-03-23T08:24:13Z</time>
      </trkpt>
      <trkpt lat="43.52712" lon="6.15195">
        <ele>229</ele>
        <time>2026-03-23T08:24:18Z</time>
      </trkpt>
      <trkpt lat="43.52707" lon="6.15189">
        <ele>229</ele>
        <time>2026-03-23T08:24:26Z</time>
      </trkpt>
      <trkpt lat="43.52701" lon="6.15189">
        <ele>229</ele>
        <time>2026-03-23T08:24:32Z</time>
      </trkpt>
      <trkpt lat="43.5266" lon="6.14967">
        <ele>225</ele>
        <time>2026-03-23T08:27:42Z</time>
      </trkpt>
      <trkpt lat="43.52659" lon="6.14967">
        <ele>230</ele>
        <time>2026-03-23T08:21:57Z</time>
      </trkpt>
      <trkpt lat="43.52671" lon="6.14944">
        <ele>231</ele>
        <time>2026-03-23T08:22:59Z</time>
      </trkpt>
      <trkpt lat="43.52691" lon="6.14933">
        <ele>232</ele>
        <time>2026-03-23T08:24:05Z</time>
      </trkpt>
      <trkpt lat="43.52714" lon="6.14927">
        <ele>234</ele>
        <time>2026-03-23T08:24:33Z</time>
      </trkpt>
      <trkpt lat="43.52731" lon="6.14909">
        <ele>236</ele>
        <time>2026-03-23T08:25:13Z</time>
      </trkpt>
      <trkpt lat="43.52735" lon="6.14878">
        <ele>238</ele>
        <time>2026-03-23T08:25:59Z</time>
      </trkpt>
      <trkpt lat="43.52741" lon="6.14848">
        <ele>241</ele>
        <time>2026-03-23T08:26:21Z</time>
      </trkpt>
      <trkpt lat="43.52752" lon="6.1482">
        <ele>243</ele>
        <time>2026-03-23T08:27:07Z</time>
      </trkpt>
      <trkpt lat="43.5276" lon="6.1479">
        <ele>246</ele>
        <time>2026-03-23T08:27:39Z</time>
      </trkpt>
      <trkpt lat="43.52761" lon="6.14758">
        <ele>248</ele>
        <time>2026-03-23T08:28:33Z</time>
      </trkpt>
      <trkpt lat="43.52765" lon="6.14727">
        <ele>251</ele>
        <time>2026-03-23T08:29:05Z</time>
      </trkpt>
      <trkpt lat="43.52769" lon="6.14696">
        <ele>254</ele>
        <time>2026-03-23T08:29:37Z</time>
      </trkpt>
      <trkpt lat="43.52772" lon="6.14665">
        <ele>257</ele>
        <time>2026-03-23T08:30:11Z</time>
      </trkpt>
      <trkpt lat="43.5278" lon="6.14638">
        <ele>258</ele>
        <time>2026-03-23T08:30:55Z</time>
      </trkpt>
      <trkpt lat="43.52798" lon="6.1462">
        <ele>259</ele>
        <time>2026-03-23T08:31:29Z</time>
      </trkpt>
      <trkpt lat="43.52816" lon="6.14603">
        <ele>259</ele>
        <time>2026-03-23T08:32:23Z</time>
      </trkpt>
      <trkpt lat="43.52823" lon="6.14575">
        <ele>258</ele>
        <time>2026-03-23T08:32:59Z</time>
      </trkpt>
      <trkpt lat="43.52828" lon="6.14544">
        <ele>258</ele>
        <time>2026-03-23T08:33:29Z</time>
      </trkpt>
      <trkpt lat="43.52834" lon="6.14515">
        <ele>258</ele>
        <time>2026-03-23T08:34:05Z</time>
      </trkpt>
      <trkpt lat="43.52834" lon="6.14482">
        <ele>258</ele>
        <time>2026-03-23T08:35:05Z</time>
      </trkpt>
      <trkpt lat="43.52831" lon="6.14451">
        <ele>258</ele>
        <time>2026-03-23T08:35:47Z</time>
      </trkpt>
      <trkpt lat="43.5283" lon="6.14418">
        <ele>260</ele>
        <time>2026-03-23T08:36:31Z</time>
      </trkpt>
      <trkpt lat="43.52834" lon="6.14387">
        <ele>262</ele>
        <time>2026-03-23T08:36:59Z</time>
      </trkpt>
      <trkpt lat="43.52837" lon="6.14357">
        <ele>263</ele>
        <time>2026-03-23T08:37:25Z</time>
      </trkpt>
      <trkpt lat="43.52849" lon="6.1433">
        <ele>264</ele>
        <time>2026-03-23T08:37:49Z</time>
      </trkpt>
      <trkpt lat="43.52866" lon="6.14301">
        <ele>264</ele>
        <time>2026-03-23T08:38:47Z</time>
      </trkpt>
      <trkpt lat="43.52874" lon="6.14271">
        <ele>264</ele>
        <time>2026-03-23T08:39:19Z</time>
      </trkpt>
      <trkpt lat="43.52883" lon="6.14243">
        <ele>266</ele>
        <time>2026-03-23T08:40:27Z</time>
      </trkpt>
      <trkpt lat="43.52894" lon="6.14215">
        <ele>268</ele>
        <time>2026-03-23T08:41:19Z</time>
      </trkpt>
      <trkpt lat="43.52908" lon="6.14192">
        <ele>270</ele>
        <time>2026-03-23T08:41:45Z</time>
      </trkpt>
      <trkpt lat="43.52924" lon="6.14169">
        <ele>272</ele>
        <time>2026-03-23T08:42:11Z</time>
      </trkpt>
      <trkpt lat="43.5294" lon="6.14144">
        <ele>274</ele>
        <time>2026-03-23T08:42:44Z</time>
      </trkpt>
      <trkpt lat="43.52956" lon="6.14122">
        <ele>276</ele>
        <time>2026-03-23T08:43:48Z</time>
      </trkpt>
      <trkpt lat="43.52968" lon="6.14096">
        <ele>278</ele>
        <time>2026-03-23T08:44:17Z</time>
      </trkpt>
      <trkpt lat="43.52985" lon="6.14075">
        <ele>280</ele>
        <time>2026-03-23T08:44:57Z</time>
      </trkpt>
      <trkpt lat="43.53004" lon="6.14058">
        <ele>283</ele>
        <time>2026-03-23T08:45:37Z</time>
      </trkpt>
      <trkpt lat="43.5302" lon="6.14041">
        <ele>286</ele>
        <time>2026-03-23T08:46:11Z</time>
      </trkpt>
      <trkpt lat="43.53036" lon="6.14056">
        <ele>291</ele>
        <time>2026-03-23T08:48:25Z</time>
      </trkpt>
      <trkpt lat="43.53053" lon="6.14076">
        <ele>294</ele>
        <time>2026-03-23T08:49:45Z</time>
      </trkpt>
      <trkpt lat="43.53071" lon="6.14094">
        <ele>297</ele>
        <time>2026-03-23T08:50:55Z</time>
      </trkpt>
      <trkpt lat="43.53092" lon="6.14105">
        <ele>301</ele>
        <time>2026-03-23T08:53:05Z</time>
      </trkpt>
      <trkpt lat="43.53113" lon="6.14117">
        <ele>304</ele>
        <time>2026-03-23T08:53:33Z</time>
      </trkpt>
      <trkpt lat="43.53131" lon="6.14136">
        <ele>306</ele>
        <time>2026-03-23T08:54:13Z</time>
      </trkpt>
      <trkpt lat="43.53146" lon="6.1416">
        <ele>309</ele>
        <time>2026-03-23T08:54:47Z</time>
      </trkpt>
      <trkpt lat="43.53162" lon="6.14183">
        <ele>311</ele>
        <time>2026-03-23T08:56:29Z</time>
      </trkpt>
      <trkpt lat="43.53183" lon="6.14199">
        <ele>313</ele>
        <time>2026-03-23T08:56:53Z</time>
      </trkpt>
      <trkpt lat="43.53204" lon="6.14214">
        <ele>315</ele>
        <time>2026-03-23T08:57:25Z</time>
      </trkpt>
      <trkpt lat="43.53222" lon="6.14233">
        <ele>318</ele>
        <time>2026-03-23T08:57:51Z</time>
      </trkpt>
      <trkpt lat="43.53238" lon="6.14255">
        <ele>320</ele>
        <time>2026-03-23T08:58:19Z</time>
      </trkpt>
      <trkpt lat="43.53254" lon="6.14277">
        <ele>321</ele>
        <time>2026-03-23T08:59:01Z</time>
      </trkpt>
      <trkpt lat="43.53272" lon="6.14297">
        <ele>321</ele>
        <time>2026-03-23T08:59:27Z</time>
      </trkpt>
      <trkpt lat="43.5329" lon="6.14316">
        <ele>321</ele>
        <time>2026-03-23T08:59:53Z</time>
      </trkpt>
      <trkpt lat="43.5331" lon="6.14328">
        <ele>321</ele>
        <time>2026-03-23T09:00:31Z</time>
      </trkpt>
      <trkpt lat="43.53331" lon="6.14342">
        <ele>322</ele>
        <time>2026-03-23T09:01:09Z</time>
      </trkpt>
      <trkpt lat="43.53352" lon="6.14346">
        <ele>324</ele>
        <time>2026-03-23T09:07:51Z</time>
      </trkpt>
      <trkpt lat="43.5337" lon="6.14329">
        <ele>327</ele>
        <time>2026-03-23T09:08:21Z</time>
      </trkpt>
      <trkpt lat="43.53385" lon="6.14305">
        <ele>330</ele>
        <time>2026-03-23T09:09:03Z</time>
      </trkpt>
      <trkpt lat="43.53385" lon="6.14275">
        <ele>332</ele>
        <time>2026-03-23T09:09:57Z</time>
      </trkpt>
      <trkpt lat="43.53378" lon="6.14252">
        <ele>335</ele>
        <time>2026-03-23T09:10:21Z</time>
      </trkpt>
      <trkpt lat="43.53396" lon="6.14247">
        <ele>336</ele>
        <time>2026-03-23T09:11:59Z</time>
      </trkpt>
      <trkpt lat="43.53417" lon="6.1425">
        <ele>338</ele>
        <time>2026-03-23T09:12:49Z</time>
      </trkpt>
      <trkpt lat="43.53435" lon="6.14234">
        <ele>339</ele>
        <time>2026-03-23T09:13:43Z</time>
      </trkpt>
      <trkpt lat="43.53456" lon="6.14229">
        <ele>340</ele>
        <time>2026-03-23T09:14:49Z</time>
      </trkpt>
      <trkpt lat="43.53478" lon="6.14219">
        <ele>341</ele>
        <time>2026-03-23T09:15:59Z</time>
      </trkpt>
      <trkpt lat="43.53498" lon="6.14205">
        <ele>343</ele>
        <time>2026-03-23T09:16:29Z</time>
      </trkpt>
      <trkpt lat="43.53518" lon="6.14191">
        <ele>345</ele>
        <time>2026-03-23T09:17:07Z</time>
      </trkpt>
      <trkpt lat="43.53539" lon="6.14181">
        <ele>347</ele>
        <time>2026-03-23T09:17:35Z</time>
      </trkpt>
      <trkpt lat="43.53561" lon="6.14182">
        <ele>349</ele>
        <time>2026-03-23T09:18:03Z</time>
      </trkpt>
      <trkpt lat="43.53583" lon="6.14173">
        <ele>349</ele>
        <time>2026-03-23T09:20:38Z</time>
      </trkpt>
      <trkpt lat="43.53602" lon="6.14157">
        <ele>349</ele>
        <time>2026-03-23T09:21:08Z</time>
      </trkpt>
      <trkpt lat="43.53619" lon="6.14136">
        <ele>349</ele>
        <time>2026-03-23T09:21:34Z</time>
      </trkpt>
      <trkpt lat="43.53637" lon="6.14117">
        <ele>349</ele>
        <time>2026-03-23T09:22:00Z</time>
      </trkpt>
      <trkpt lat="43.53656" lon="6.141">
        <ele>349</ele>
        <time>2026-03-23T09:22:22Z</time>
      </trkpt>
      <trkpt lat="43.53676" lon="6.14085">
        <ele>350</ele>
        <time>2026-03-23T09:22:48Z</time>
      </trkpt>
      <trkpt lat="43.53693" lon="6.14065">
        <ele>351</ele>
        <time>2026-03-23T09:23:16Z</time>
      </trkpt>
      <trkpt lat="43.53706" lon="6.14038">
        <ele>352</ele>
        <time>2026-03-23T09:23:42Z</time>
      </trkpt>
      <trkpt lat="43.53717" lon="6.1401">
        <ele>354</ele>
        <time>2026-03-23T09:24:10Z</time>
      </trkpt>
      <trkpt lat="43.53727" lon="6.13981">
        <ele>357</ele>
        <time>2026-03-23T09:25:56Z</time>
      </trkpt>
      <trkpt lat="43.53743" lon="6.13958">
        <ele>359</ele>
        <time>2026-03-23T09:26:26Z</time>
      </trkpt>
      <trkpt lat="43.53763" lon="6.13941">
        <ele>360</ele>
        <time>2026-03-23T09:26:58Z</time>
      </trkpt>
      <trkpt lat="43.53783" lon="6.13927">
        <ele>361</ele>
        <time>2026-03-23T09:27:24Z</time>
      </trkpt>
      <trkpt lat="43.53804" lon="6.13911">
        <ele>361</ele>
        <time>2026-03-23T09:28:02Z</time>
      </trkpt>
      <trkpt lat="43.5382" lon="6.13889">
        <ele>362</ele>
        <time>2026-03-23T09:28:36Z</time>
      </trkpt>
      <trkpt lat="43.53836" lon="6.13868">
        <ele>362</ele>
        <time>2026-03-23T09:29:06Z</time>
      </trkpt>
      <trkpt lat="43.53855" lon="6.13851">
        <ele>362</ele>
        <time>2026-03-23T09:29:44Z</time>
      </trkpt>
      <trkpt lat="43.53877" lon="6.13841">
        <ele>362</ele>
        <time>2026-03-23T09:30:12Z</time>
      </trkpt>
      <trkpt lat="43.53899" lon="6.13833">
        <ele>362</ele>
        <time>2026-03-23T09:30:42Z</time>
      </trkpt>
      <trkpt lat="43.53922" lon="6.13831">
        <ele>362</ele>
        <time>2026-03-23T09:31:14Z</time>
      </trkpt>
      <trkpt lat="43.53946" lon="6.13833">
        <ele>362</ele>
        <time>2026-03-23T09:31:42Z</time>
      </trkpt>
      <trkpt lat="43.53969" lon="6.13834">
        <ele>363</ele>
        <time>2026-03-23T09:34:50Z</time>
      </trkpt>
      <trkpt lat="43.53988" lon="6.13818">
        <ele>364</ele>
        <time>2026-03-23T09:35:20Z</time>
      </trkpt>
      <trkpt lat="43.54006" lon="6.13799">
        <ele>365</ele>
        <time>2026-03-23T09:36:00Z</time>
      </trkpt>
      <trkpt lat="43.54021" lon="6.13775">
        <ele>365</ele>
        <time>2026-03-23T09:36:28Z</time>
      </trkpt>
      <trkpt lat="43.54033" lon="6.13748">
        <ele>365</ele>
        <time>2026-03-23T09:36:58Z</time>
      </trkpt>
      <trkpt lat="43.54044" lon="6.13719">
        <ele>364</ele>
        <time>2026-03-23T09:37:28Z</time>
      </trkpt>
      <trkpt lat="43.54054" lon="6.13689">
        <ele>364</ele>
        <time>2026-03-23T09:38:00Z</time>
      </trkpt>
      <trkpt lat="43.54064" lon="6.1366">
        <ele>364</ele>
        <time>2026-03-23T09:38:32Z</time>
      </trkpt>
      <trkpt lat="43.54074" lon="6.13633">
        <ele>365</ele>
        <time>2026-03-23T09:38:57Z</time>
      </trkpt>
      <trkpt lat="43.54088" lon="6.13609">
        <ele>366</ele>
        <time>2026-03-23T09:39:25Z</time>
      </trkpt>
      <trkpt lat="43.54103" lon="6.13584">
        <ele>367</ele>
        <time>2026-03-23T09:39:57Z</time>
      </trkpt>
      <trkpt lat="43.5412" lon="6.1357">
        <ele>368</ele>
        <time>2026-03-23T09:40:25Z</time>
      </trkpt>
      <trkpt lat="43.54135" lon="6.13589">
        <ele>368</ele>
        <time>2026-03-23T09:45:39Z</time>
      </trkpt>
      <trkpt lat="43.54154" lon="6.13604">
        <ele>368</ele>
        <time>2026-03-23T09:46:05Z</time>
      </trkpt>
      <trkpt lat="43.54176" lon="6.13602">
        <ele>368</ele>
        <time>2026-03-23T09:46:59Z</time>
      </trkpt>
      <trkpt lat="43.54199" lon="6.13601">
        <ele>369</ele>
        <time>2026-03-23T09:47:29Z</time>
      </trkpt>
      <trkpt lat="43.54222" lon="6.13603">
        <ele>370</ele>
        <time>2026-03-23T09:48:01Z</time>
      </trkpt>
      <trkpt lat="43.54245" lon="6.13607">
        <ele>371</ele>
        <time>2026-03-23T09:48:37Z</time>
      </trkpt>
      <trkpt lat="43.54267" lon="6.13605">
        <ele>374</ele>
        <time>2026-03-23T09:49:07Z</time>
      </trkpt>
      <trkpt lat="43.5429" lon="6.13604">
        <ele>376</ele>
        <time>2026-03-23T09:49:41Z</time>
      </trkpt>
      <trkpt lat="43.54312" lon="6.13604">
        <ele>378</ele>
        <time>2026-03-23T09:50:11Z</time>
      </trkpt>
      <trkpt lat="43.54333" lon="6.13618">
        <ele>380</ele>
        <time>2026-03-23T09:50:41Z</time>
      </trkpt>
      <trkpt lat="43.54349" lon="6.13639">
        <ele>382</ele>
        <time>2026-03-23T09:51:23Z</time>
      </trkpt>
      <trkpt lat="43.5437" lon="6.13654">
        <ele>383</ele>
        <time>2026-03-23T09:51:53Z</time>
      </trkpt>
      <trkpt lat="43.5439" lon="6.1367">
        <ele>384</ele>
        <time>2026-03-23T09:52:21Z</time>
      </trkpt>
      <trkpt lat="43.54411" lon="6.1368">
        <ele>384</ele>
        <time>2026-03-23T09:52:55Z</time>
      </trkpt>
      <trkpt lat="43.54433" lon="6.13688">
        <ele>383</ele>
        <time>2026-03-23T09:53:23Z</time>
      </trkpt>
      <trkpt lat="43.54456" lon="6.13693">
        <ele>382</ele>
        <time>2026-03-23T09:53:49Z</time>
      </trkpt>
      <trkpt lat="43.54478" lon="6.13687">
        <ele>381</ele>
        <time>2026-03-23T09:54:19Z</time>
      </trkpt>
      <trkpt lat="43.545" lon="6.13677">
        <ele>380</ele>
        <time>2026-03-23T09:54:51Z</time>
      </trkpt>
      <trkpt lat="43.54521" lon="6.13664">
        <ele>379</ele>
        <time>2026-03-23T09:55:23Z</time>
      </trkpt>
      <trkpt lat="43.54543" lon="6.13658">
        <ele>379</ele>
        <time>2026-03-23T09:55:47Z</time>
      </trkpt>
      <trkpt lat="43.54566" lon="6.13654">
        <ele>379</ele>
        <time>2026-03-23T09:56:11Z</time>
      </trkpt>
      <trkpt lat="43.54588" lon="6.13652">
        <ele>378</ele>
        <time>2026-03-23T09:56:39Z</time>
      </trkpt>
      <trkpt lat="43.54609" lon="6.13639">
        <ele>378</ele>
        <time>2026-03-23T09:57:07Z</time>
      </trkpt>
      <trkpt lat="43.54628" lon="6.13622">
        <ele>377</ele>
        <time>2026-03-23T09:57:35Z</time>
      </trkpt>
      <trkpt lat="43.54647" lon="6.13604">
        <ele>376</ele>
        <time>2026-03-23T09:58:05Z</time>
      </trkpt>
      <trkpt lat="43.54664" lon="6.13583">
        <ele>377</ele>
        <time>2026-03-23T09:58:37Z</time>
      </trkpt>
      <trkpt lat="43.54684" lon="6.13568">
        <ele>377</ele>
        <time>2026-03-23T10:01:11Z</time>
      </trkpt>
      <trkpt lat="43.54704" lon="6.13555">
        <ele>377</ele>
        <time>2026-03-23T10:01:42Z</time>
      </trkpt>
      <trkpt lat="43.54726" lon="6.13544">
        <ele>377</ele>
        <time>2026-03-23T10:02:10Z</time>
      </trkpt>
      <trkpt lat="43.54747" lon="6.1353">
        <ele>376</ele>
        <time>2026-03-23T10:02:38Z</time>
      </trkpt>
      <trkpt lat="43.54768" lon="6.13517">
        <ele>376</ele>
        <time>2026-03-23T10:03:08Z</time>
      </trkpt>
      <trkpt lat="43.54788" lon="6.13503">
        <ele>376</ele>
        <time>2026-03-23T10:03:32Z</time>
      </trkpt>
      <trkpt lat="43.54809" lon="6.1349">
        <ele>376</ele>
        <time>2026-03-23T10:04:00Z</time>
      </trkpt>
      <trkpt lat="43.54826" lon="6.13471">
        <ele>376</ele>
        <time>2026-03-23T10:05:20Z</time>
      </trkpt>
      <trkpt lat="43.54846" lon="6.13455">
        <ele>376</ele>
        <time>2026-03-23T10:06:48Z</time>
      </trkpt>
      <trkpt lat="43.54866" lon="6.13442">
        <ele>376</ele>
        <time>2026-03-23T10:07:18Z</time>
      </trkpt>
      <trkpt lat="43.54887" lon="6.1343">
        <ele>375</ele>
        <time>2026-03-23T10:08:01Z</time>
      </trkpt>
      <trkpt lat="43.54909" lon="6.13424">
        <ele>374</ele>
        <time>2026-03-23T10:08:39Z</time>
      </trkpt>
      <trkpt lat="43.54932" lon="6.13419">
        <ele>373</ele>
        <time>2026-03-23T10:09:55Z</time>
      </trkpt>
      <trkpt lat="43.54954" lon="6.13412">
        <ele>372</ele>
        <time>2026-03-23T10:12:07Z</time>
      </trkpt>
      <trkpt lat="43.54975" lon="6.13403">
        <ele>372</ele>
        <time>2026-03-23T10:12:55Z</time>
      </trkpt>
      <trkpt lat="43.54991" lon="6.13381">
        <ele>372</ele>
        <time>2026-03-23T10:15:56Z</time>
      </trkpt>
      <trkpt lat="43.55003" lon="6.13353">
        <ele>373</ele>
        <time>2026-03-23T10:16:22Z</time>
      </trkpt>
      <trkpt lat="43.55015" lon="6.13326">
        <ele>375</ele>
        <time>2026-03-23T10:16:48Z</time>
      </trkpt>
      <trkpt lat="43.55028" lon="6.133">
        <ele>375</ele>
        <time>2026-03-23T10:17:14Z</time>
      </trkpt>
      <trkpt lat="43.55045" lon="6.13277">
        <ele>375</ele>
        <time>2026-03-23T10:17:36Z</time>
      </trkpt>
      <trkpt lat="43.55062" lon="6.13256">
        <ele>375</ele>
        <time>2026-03-23T10:18:04Z</time>
      </trkpt>
      <trkpt lat="43.55083" lon="6.13239">
        <ele>375</ele>
        <time>2026-03-23T10:18:30Z</time>
      </trkpt>
      <trkpt lat="43.55101" lon="6.13219">
        <ele>375</ele>
        <time>2026-03-23T10:18:58Z</time>
      </trkpt>
      <trkpt lat="43.55117" lon="6.13196">
        <ele>376</ele>
        <time>2026-03-23T10:19:24Z</time>
      </trkpt>
      <trkpt lat="43.55132" lon="6.1317">
        <ele>376</ele>
        <time>2026-03-23T10:19:50Z</time>
      </trkpt>
      <trkpt lat="43.55146" lon="6.13146">
        <ele>376</ele>
        <time>2026-03-23T10:20:16Z</time>
      </trkpt>
      <trkpt lat="43.55157" lon="6.13118">
        <ele>376</ele>
        <time>2026-03-23T10:20:52Z</time>
      </trkpt>
      <trkpt lat="43.55171" lon="6.13093">
        <ele>377</ele>
        <time>2026-03-23T10:21:16Z</time>
      </trkpt>
      <trkpt lat="43.55183" lon="6.13065">
        <ele>377</ele>
        <time>2026-03-23T10:21:42Z</time>
      </trkpt>
      <trkpt lat="43.55194" lon="6.13037">
        <ele>377</ele>
        <time>2026-03-23T10:22:18Z</time>
      </trkpt>
      <trkpt lat="43.55207" lon="6.13012">
        <ele>377</ele>
        <time>2026-03-23T10:22:46Z</time>
      </trkpt>
      <trkpt lat="43.55221" lon="6.12988">
        <ele>377</ele>
        <time>2026-03-23T10:23:36Z</time>
      </trkpt>
      <trkpt lat="43.55234" lon="6.12962">
        <ele>377</ele>
        <time>2026-03-23T10:24:06Z</time>
      </trkpt>
      <trkpt lat="43.55248" lon="6.12946">
        <ele>377</ele>
        <time>2026-03-23T10:24:32Z</time>
      </trkpt>
      <trkpt lat="43.55252" lon="6.12972">
        <ele>374</ele>
        <time>2026-03-23T10:25:48Z</time>
      </trkpt>
      <trkpt lat="43.55257" lon="6.13002">
        <ele>371</ele>
        <time>2026-03-23T10:26:16Z</time>
      </trkpt>
      <trkpt lat="43.55265" lon="6.13032">
        <ele>367</ele>
        <time>2026-03-23T10:26:42Z</time>
      </trkpt>
      <trkpt lat="43.55273" lon="6.13061">
        <ele>363</ele>
        <time>2026-03-23T10:27:12Z</time>
      </trkpt>
      <trkpt lat="43.55281" lon="6.13092">
        <ele>361</ele>
        <time>2026-03-23T10:27:40Z</time>
      </trkpt>
      <trkpt lat="43.55288" lon="6.13123">
        <ele>359</ele>
        <time>2026-03-23T10:28:06Z</time>
      </trkpt>
      <trkpt lat="43.5529" lon="6.13155">
        <ele>358</ele>
        <time>2026-03-23T10:28:34Z</time>
      </trkpt>
      <trkpt lat="43.55283" lon="6.13185">
        <ele>357</ele>
        <time>2026-03-23T10:29:00Z</time>
      </trkpt>
      <trkpt lat="43.5527" lon="6.13211">
        <ele>355</ele>
        <time>2026-03-23T10:29:26Z</time>
      </trkpt>
      <trkpt lat="43.55256" lon="6.13235">
        <ele>354</ele>
        <time>2026-03-23T10:30:36Z</time>
      </trkpt>
      <trkpt lat="43.5525" lon="6.13262">
        <ele>353</ele>
        <time>2026-03-23T10:31:02Z</time>
      </trkpt>
      <trkpt lat="43.55261" lon="6.13287">
        <ele>353</ele>
        <time>2026-03-23T10:31:28Z</time>
      </trkpt>
      <trkpt lat="43.5527" lon="6.13316">
        <ele>353</ele>
        <time>2026-03-23T10:31:56Z</time>
      </trkpt>
      <trkpt lat="43.55275" lon="6.13347">
        <ele>352</ele>
        <time>2026-03-23T10:32:22Z</time>
      </trkpt>
      <trkpt lat="43.55278" lon="6.13378">
        <ele>352</ele>
        <time>2026-03-23T10:32:46Z</time>
      </trkpt>
      <trkpt lat="43.55277" lon="6.13411">
        <ele>351</ele>
        <time>2026-03-23T10:33:12Z</time>
      </trkpt>
      <trkpt lat="43.55272" lon="6.13443">
        <ele>351</ele>
        <time>2026-03-23T10:33:36Z</time>
      </trkpt>
      <trkpt lat="43.55274" lon="6.13476">
        <ele>352</ele>
        <time>2026-03-23T10:34:02Z</time>
      </trkpt>
      <trkpt lat="43.55279" lon="6.13506">
        <ele>352</ele>
        <time>2026-03-23T10:34:26Z</time>
      </trkpt>
      <trkpt lat="43.5528" lon="6.13537">
        <ele>351</ele>
        <time>2026-03-23T10:35:22Z</time>
      </trkpt>
      <trkpt lat="43.55283" lon="6.13569">
        <ele>351</ele>
        <time>2026-03-23T10:36:00Z</time>
      </trkpt>
      <trkpt lat="43.55289" lon="6.136">
        <ele>351</ele>
        <time>2026-03-23T10:36:28Z</time>
      </trkpt>
      <trkpt lat="43.55296" lon="6.13629">
        <ele>352</ele>
        <time>2026-03-23T10:36:54Z</time>
      </trkpt>
      <trkpt lat="43.55303" lon="6.13659">
        <ele>352</ele>
        <time>2026-03-23T10:37:18Z</time>
      </trkpt>
      <trkpt lat="43.5531" lon="6.13688">
        <ele>352</ele>
        <time>2026-03-23T10:37:42Z</time>
      </trkpt>
      <trkpt lat="43.55311" lon="6.1372">
        <ele>352</ele>
        <time>2026-03-23T10:38:06Z</time>
      </trkpt>
      <trkpt lat="43.55307" lon="6.1375">
        <ele>352</ele>
        <time>2026-03-23T10:38:28Z</time>
      </trkpt>
      <trkpt lat="43.55304" lon="6.13781">
        <ele>351</ele>
        <time>2026-03-23T10:38:52Z</time>
      </trkpt>
      <trkpt lat="43.553" lon="6.13812">
        <ele>350</ele>
        <time>2026-03-23T10:39:14Z</time>
      </trkpt>
      <trkpt lat="43.55296" lon="6.13843">
        <ele>349</ele>
        <time>2026-03-23T10:39:36Z</time>
      </trkpt>
      <trkpt lat="43.55293" lon="6.13874">
        <ele>348</ele>
        <time>2026-03-23T10:40:26Z</time>
      </trkpt>
      <trkpt lat="43.55285" lon="6.13903">
        <ele>348</ele>
        <time>2026-03-23T11:46:36Z</time>
      </trkpt>
      <trkpt lat="43.55277" lon="6.1393">
        <ele>346</ele>
        <time>2026-03-23T11:47:43Z</time>
      </trkpt>
      <trkpt lat="43.55259" lon="6.13943">
        <ele>346</ele>
        <time>2026-03-23T11:48:29Z</time>
      </trkpt>
      <trkpt lat="43.55238" lon="6.13933">
        <ele>345</ele>
        <time>2026-03-23T11:49:35Z</time>
      </trkpt>
      <trkpt lat="43.55217" lon="6.1392">
        <ele>345</ele>
        <time>2026-03-23T11:49:59Z</time>
      </trkpt>
      <trkpt lat="43.55195" lon="6.13924">
        <ele>345</ele>
        <time>2026-03-23T11:50:25Z</time>
      </trkpt>
      <trkpt lat="43.55174" lon="6.13938">
        <ele>345</ele>
        <time>2026-03-23T11:50:53Z</time>
      </trkpt>
      <trkpt lat="43.55155" lon="6.13952">
        <ele>346</ele>
        <time>2026-03-23T11:51:25Z</time>
      </trkpt>
      <trkpt lat="43.55137" lon="6.13971">
        <ele>347</ele>
        <time>2026-03-23T11:51:49Z</time>
      </trkpt>
      <trkpt lat="43.5512" lon="6.13991">
        <ele>348</ele>
        <time>2026-03-23T11:52:11Z</time>
      </trkpt>
      <trkpt lat="43.55101" lon="6.14006">
        <ele>351</ele>
        <time>2026-03-23T11:52:39Z</time>
      </trkpt>
      <trkpt lat="43.55085" lon="6.14027">
        <ele>352</ele>
        <time>2026-03-23T11:53:07Z</time>
      </trkpt>
      <trkpt lat="43.55071" lon="6.14053">
        <ele>354</ele>
        <time>2026-03-23T11:53:35Z</time>
      </trkpt>
      <trkpt lat="43.55057" lon="6.14078">
        <ele>355</ele>
        <time>2026-03-23T11:54:01Z</time>
      </trkpt>
      <trkpt lat="43.55042" lon="6.14103">
        <ele>356</ele>
        <time>2026-03-23T11:54:25Z</time>
      </trkpt>
      <trkpt lat="43.55021" lon="6.14113">
        <ele>356</ele>
        <time>2026-03-23T11:54:51Z</time>
      </trkpt>
      <trkpt lat="43.54999" lon="6.1411">
        <ele>357</ele>
        <time>2026-03-23T11:55:15Z</time>
      </trkpt>
      <trkpt lat="43.54978" lon="6.14097">
        <ele>357</ele>
        <time>2026-03-23T11:56:09Z</time>
      </trkpt>
      <trkpt lat="43.54957" lon="6.14089">
        <ele>356</ele>
        <time>2026-03-23T11:56:37Z</time>
      </trkpt>
      <trkpt lat="43.54937" lon="6.141">
        <ele>357</ele>
        <time>2026-03-23T11:57:01Z</time>
      </trkpt>
      <trkpt lat="43.54916" lon="6.14111">
        <ele>357</ele>
        <time>2026-03-23T11:57:21Z</time>
      </trkpt>
      <trkpt lat="43.54893" lon="6.14115">
        <ele>357</ele>
        <time>2026-03-23T11:57:45Z</time>
      </trkpt>
      <trkpt lat="43.54872" lon="6.14127">
        <ele>357</ele>
        <time>2026-03-23T11:58:09Z</time>
      </trkpt>
      <trkpt lat="43.54858" lon="6.1415">
        <ele>355</ele>
        <time>2026-03-23T11:58:33Z</time>
      </trkpt>
      <trkpt lat="43.54842" lon="6.14173">
        <ele>353</ele>
        <time>2026-03-23T11:59:01Z</time>
      </trkpt>
      <trkpt lat="43.54823" lon="6.14191">
        <ele>351</ele>
        <time>2026-03-23T11:59:25Z</time>
      </trkpt>
      <trkpt lat="43.54803" lon="6.14207">
        <ele>349</ele>
        <time>2026-03-23T11:59:51Z</time>
      </trkpt>
      <trkpt lat="43.54782" lon="6.14218">
        <ele>346</ele>
        <time>2026-03-23T12:00:11Z</time>
      </trkpt>
      <trkpt lat="43.54761" lon="6.14229">
        <ele>343</ele>
        <time>2026-03-23T12:00:31Z</time>
      </trkpt>
      <trkpt lat="43.54739" lon="6.14242">
        <ele>340</ele>
        <time>2026-03-23T12:00:55Z</time>
      </trkpt>
      <trkpt lat="43.54719" lon="6.14256">
        <ele>338</ele>
        <time>2026-03-23T12:01:19Z</time>
      </trkpt>
      <trkpt lat="43.547" lon="6.14273">
        <ele>336</ele>
        <time>2026-03-23T12:01:45Z</time>
      </trkpt>
      <trkpt lat="43.5468" lon="6.1429">
        <ele>335</ele>
        <time>2026-03-23T12:02:05Z</time>
      </trkpt>
      <trkpt lat="43.54659" lon="6.14301">
        <ele>334</ele>
        <time>2026-03-23T12:02:29Z</time>
      </trkpt>
      <trkpt lat="43.54637" lon="6.1431">
        <ele>333</ele>
        <time>2026-03-23T12:02:51Z</time>
      </trkpt>
      <trkpt lat="43.54614" lon="6.14315">
        <ele>332</ele>
        <time>2026-03-23T12:03:14Z</time>
      </trkpt>
      <trkpt lat="43.54592" lon="6.1432">
        <ele>332</ele>
        <time>2026-03-23T12:03:34Z</time>
      </trkpt>
      <trkpt lat="43.54569" lon="6.14325">
        <ele>332</ele>
        <time>2026-03-23T12:03:54Z</time>
      </trkpt>
      <trkpt lat="43.54547" lon="6.1433">
        <ele>332</ele>
        <time>2026-03-23T12:04:16Z</time>
      </trkpt>
      <trkpt lat="43.54524" lon="6.14339">
        <ele>332</ele>
        <time>2026-03-23T12:04:37Z</time>
      </trkpt>
      <trkpt lat="43.54504" lon="6.14356">
        <ele>332</ele>
        <time>2026-03-23T12:04:59Z</time>
      </trkpt>
      <trkpt lat="43.54489" lon="6.14379">
        <ele>331</ele>
        <time>2026-03-23T12:05:29Z</time>
      </trkpt>
      <trkpt lat="43.54473" lon="6.14403">
        <ele>331</ele>
        <time>2026-03-23T12:05:53Z</time>
      </trkpt>
      <trkpt lat="43.54457" lon="6.14425">
        <ele>331</ele>
        <time>2026-03-23T12:06:17Z</time>
      </trkpt>
      <trkpt lat="43.54445" lon="6.1445">
        <ele>331</ele>
        <time>2026-03-23T12:06:47Z</time>
      </trkpt>
      <trkpt lat="43.54434" lon="6.14478">
        <ele>332</ele>
        <time>2026-03-23T12:07:09Z</time>
      </trkpt>
      <trkpt lat="43.54425" lon="6.14508">
        <ele>332</ele>
        <time>2026-03-23T12:07:35Z</time>
      </trkpt>
      <trkpt lat="43.54414" lon="6.14535">
        <ele>331</ele>
        <time>2026-03-23T12:07:58Z</time>
      </trkpt>
      <trkpt lat="43.54405" lon="6.14564">
        <ele>330</ele>
        <time>2026-03-23T12:08:28Z</time>
      </trkpt>
      <trkpt lat="43.54397" lon="6.14593">
        <ele>330</ele>
        <time>2026-03-23T12:09:06Z</time>
      </trkpt>
      <trkpt lat="43.54387" lon="6.14622">
        <ele>329</ele>
        <time>2026-03-23T12:09:30Z</time>
      </trkpt>
      <trkpt lat="43.54377" lon="6.1465">
        <ele>328</ele>
        <time>2026-03-23T12:09:52Z</time>
      </trkpt>
      <trkpt lat="43.54363" lon="6.14676">
        <ele>328</ele>
        <time>2026-03-23T12:10:16Z</time>
      </trkpt>
      <trkpt lat="43.54349" lon="6.147">
        <ele>327</ele>
        <time>2026-03-23T12:10:36Z</time>
      </trkpt>
      <trkpt lat="43.54337" lon="6.14726">
        <ele>327</ele>
        <time>2026-03-23T12:10:58Z</time>
      </trkpt>
      <trkpt lat="43.54324" lon="6.14753">
        <ele>326</ele>
        <time>2026-03-23T12:11:18Z</time>
      </trkpt>
      <trkpt lat="43.54309" lon="6.14778">
        <ele>326</ele>
        <time>2026-03-23T12:11:40Z</time>
      </trkpt>
      <trkpt lat="43.54293" lon="6.148">
        <ele>325</ele>
        <time>2026-03-23T12:12:20Z</time>
      </trkpt>
      <trkpt lat="43.54277" lon="6.14821">
        <ele>324</ele>
        <time>2026-03-23T12:12:42Z</time>
      </trkpt>
      <trkpt lat="43.54258" lon="6.1484">
        <ele>323</ele>
        <time>2026-03-23T12:13:04Z</time>
      </trkpt>
      <trkpt lat="43.54237" lon="6.14847">
        <ele>322</ele>
        <time>2026-03-23T12:13:26Z</time>
      </trkpt>
      <trkpt lat="43.54216" lon="6.14837">
        <ele>322</ele>
        <time>2026-03-23T12:13:52Z</time>
      </trkpt>
      <trkpt lat="43.54194" lon="6.14824">
        <ele>321</ele>
        <time>2026-03-23T12:14:14Z</time>
      </trkpt>
      <trkpt lat="43.54171" lon="6.14816">
        <ele>321</ele>
        <time>2026-03-23T12:14:36Z</time>
      </trkpt>
      <trkpt lat="43.54148" lon="6.14806">
        <ele>321</ele>
        <time>2026-03-23T12:15:00Z</time>
      </trkpt>
      <trkpt lat="43.54126" lon="6.14798">
        <ele>321</ele>
        <time>2026-03-23T12:15:22Z</time>
      </trkpt>
      <trkpt lat="43.54104" lon="6.14791">
        <ele>321</ele>
        <time>2026-03-23T12:15:44Z</time>
      </trkpt>
      <trkpt lat="43.54081" lon="6.14789">
        <ele>322</ele>
        <time>2026-03-23T12:16:08Z</time>
      </trkpt>
      <trkpt lat="43.54058" lon="6.14783">
        <ele>323</ele>
        <time>2026-03-23T12:16:30Z</time>
      </trkpt>
      <trkpt lat="43.54035" lon="6.14779">
        <ele>325</ele>
        <time>2026-03-23T12:16:52Z</time>
      </trkpt>
      <trkpt lat="43.54012" lon="6.14782">
        <ele>326</ele>
        <time>2026-03-23T12:17:16Z</time>
      </trkpt>
      <trkpt lat="43.53991" lon="6.14794">
        <ele>327</ele>
        <time>2026-03-23T12:20:34Z</time>
      </trkpt>
      <trkpt lat="43.53969" lon="6.14802">
        <ele>328</ele>
        <time>2026-03-23T12:20:58Z</time>
      </trkpt>
      <trkpt lat="43.53952" lon="6.14784">
        <ele>329</ele>
        <time>2026-03-23T12:21:22Z</time>
      </trkpt>
      <trkpt lat="43.53934" lon="6.14765">
        <ele>329</ele>
        <time>2026-03-23T12:21:48Z</time>
      </trkpt>
      <trkpt lat="43.53915" lon="6.14745">
        <ele>329</ele>
        <time>2026-03-23T12:22:12Z</time>
      </trkpt>
      <trkpt lat="43.53895" lon="6.14724">
        <ele>330</ele>
        <time>2026-03-23T12:23:06Z</time>
      </trkpt>
      <trkpt lat="43.53873" lon="6.14713">
        <ele>330</ele>
        <time>2026-03-23T12:25:22Z</time>
      </trkpt>
      <trkpt lat="43.53851" lon="6.14712">
        <ele>330</ele>
        <time>2026-03-23T12:26:03Z</time>
      </trkpt>
      <trkpt lat="43.5383" lon="6.1472">
        <ele>330</ele>
        <time>2026-03-23T12:26:27Z</time>
      </trkpt>
      <trkpt lat="43.53808" lon="6.14731">
        <ele>330</ele>
        <time>2026-03-23T12:26:49Z</time>
      </trkpt>
      <trkpt lat="43.53787" lon="6.14742">
        <ele>330</ele>
        <time>2026-03-23T12:27:15Z</time>
      </trkpt>
      <trkpt lat="43.53765" lon="6.14745">
        <ele>330</ele>
        <time>2026-03-23T12:27:39Z</time>
      </trkpt>
      <trkpt lat="43.53743" lon="6.14737">
        <ele>330</ele>
        <time>2026-03-23T12:28:05Z</time>
      </trkpt>
      <trkpt lat="43.53723" lon="6.14725">
        <ele>331</ele>
        <time>2026-03-23T12:28:37Z</time>
      </trkpt>
      <trkpt lat="43.53701" lon="6.14718">
        <ele>331</ele>
        <time>2026-03-23T12:29:11Z</time>
      </trkpt>
      <trkpt lat="43.53682" lon="6.14702">
        <ele>331</ele>
        <time>2026-03-23T12:32:37Z</time>
      </trkpt>
      <trkpt lat="43.53661" lon="6.14699">
        <ele>331</ele>
        <time>2026-03-23T12:33:03Z</time>
      </trkpt>
      <trkpt lat="43.53639" lon="6.14704">
        <ele>331</ele>
        <time>2026-03-23T12:33:36Z</time>
      </trkpt>
      <trkpt lat="43.53623" lon="6.14726">
        <ele>331</ele>
        <time>2026-03-23T12:34:10Z</time>
      </trkpt>
      <trkpt lat="43.53606" lon="6.14746">
        <ele>331</ele>
        <time>2026-03-23T12:34:39Z</time>
      </trkpt>
      <trkpt lat="43.53587" lon="6.14764">
        <ele>335</ele>
        <time>2026-03-23T12:35:13Z</time>
      </trkpt>
      <trkpt lat="43.53567" lon="6.14779">
        <ele>340</ele>
        <time>2026-03-23T12:35:45Z</time>
      </trkpt>
      <trkpt lat="43.53546" lon="6.1479">
        <ele>344</ele>
        <time>2026-03-23T12:36:15Z</time>
      </trkpt>
      <trkpt lat="43.53524" lon="6.14797">
        <ele>350</ele>
        <time>2026-03-23T12:36:48Z</time>
      </trkpt>
      <trkpt lat="43.53499" lon="6.14793">
        <ele>352</ele>
        <time>2026-03-23T12:43:00Z</time>
      </trkpt>
      <trkpt lat="43.53477" lon="6.148">
        <ele>354</ele>
        <time>2026-03-23T12:43:40Z</time>
      </trkpt>
      <trkpt lat="43.53459" lon="6.14819">
        <ele>354</ele>
        <time>2026-03-23T12:44:17Z</time>
      </trkpt>
      <trkpt lat="43.53441" lon="6.14834">
        <ele>355</ele>
        <time>2026-03-23T12:44:46Z</time>
      </trkpt>
      <trkpt lat="43.53422" lon="6.14823">
        <ele>355</ele>
        <time>2026-03-23T12:45:34Z</time>
      </trkpt>
      <trkpt lat="43.53408" lon="6.148">
        <ele>355</ele>
        <time>2026-03-23T12:46:44Z</time>
      </trkpt>
      <trkpt lat="43.53395" lon="6.14784">
        <ele>355</ele>
        <time>2026-03-23T12:47:46Z</time>
      </trkpt>
      <trkpt lat="43.53409" lon="6.14799">
        <ele>355</ele>
        <time>2026-03-23T12:50:38Z</time>
      </trkpt>
      <trkpt lat="43.53422" lon="6.14815">
        <ele>352</ele>
        <time>2026-03-23T12:51:00Z</time>
      </trkpt>
      <trkpt lat="43.53408" lon="6.14802">
        <ele>347</ele>
        <time>2026-03-23T12:53:56Z</time>
      </trkpt>
      <trkpt lat="43.53391" lon="6.14782">
        <ele>342</ele>
        <time>2026-03-23T12:54:24Z</time>
      </trkpt>
      <trkpt lat="43.53369" lon="6.14774">
        <ele>337</ele>
        <time>2026-03-23T12:55:32Z</time>
      </trkpt>
      <trkpt lat="43.53348" lon="6.14765">
        <ele>334</ele>
        <time>2026-03-23T12:56:02Z</time>
      </trkpt>
      <trkpt lat="43.53336" lon="6.1474">
        <ele>332</ele>
        <time>2026-03-23T12:56:34Z</time>
      </trkpt>
      <trkpt lat="43.53319" lon="6.1472">
        <ele>331</ele>
        <time>2026-03-23T12:57:04Z</time>
      </trkpt>
      <trkpt lat="43.53302" lon="6.14698">
        <ele>330</ele>
        <time>2026-03-23T12:57:34Z</time>
      </trkpt>
      <trkpt lat="43.53287" lon="6.14675">
        <ele>328</ele>
        <time>2026-03-23T12:57:58Z</time>
      </trkpt>
      <trkpt lat="43.53273" lon="6.14651">
        <ele>327</ele>
        <time>2026-03-23T12:58:26Z</time>
      </trkpt>
      <trkpt lat="43.53253" lon="6.14636">
        <ele>324</ele>
        <time>2026-03-23T12:59:02Z</time>
      </trkpt>
      <trkpt lat="43.53233" lon="6.14622">
        <ele>323</ele>
        <time>2026-03-23T12:59:36Z</time>
      </trkpt>
      <trkpt lat="43.5322" lon="6.14598">
        <ele>322</ele>
        <time>2026-03-23T13:00:06Z</time>
      </trkpt>
      <trkpt lat="43.53221" lon="6.14569">
        <ele>321</ele>
        <time>2026-03-23T13:02:32Z</time>
      </trkpt>
      <trkpt lat="43.53235" lon="6.14548">
        <ele>320</ele>
        <time>2026-03-23T13:03:34Z</time>
      </trkpt>
      <trkpt lat="43.53225" lon="6.14526">
        <ele>319</ele>
        <time>2026-03-23T13:04:00Z</time>
      </trkpt>
      <trkpt lat="43.53204" lon="6.14517">
        <ele>317</ele>
        <time>2026-03-23T13:04:28Z</time>
      </trkpt>
      <trkpt lat="43.53181" lon="6.14516">
        <ele>315</ele>
        <time>2026-03-23T13:04:52Z</time>
      </trkpt>
      <trkpt lat="43.5316" lon="6.14527">
        <ele>314</ele>
        <time>2026-03-23T13:05:16Z</time>
      </trkpt>
      <trkpt lat="43.53138" lon="6.14536">
        <ele>313</ele>
        <time>2026-03-23T13:05:42Z</time>
      </trkpt>
      <trkpt lat="43.53116" lon="6.14545">
        <ele>312</ele>
        <time>2026-03-23T13:06:10Z</time>
      </trkpt>
      <trkpt lat="43.53095" lon="6.14551">
        <ele>311</ele>
        <time>2026-03-23T13:06:36Z</time>
      </trkpt>
      <trkpt lat="43.53073" lon="6.14559">
        <ele>311</ele>
        <time>2026-03-23T13:07:00Z</time>
      </trkpt>
      <trkpt lat="43.53052" lon="6.14567">
        <ele>310</ele>
        <time>2026-03-23T13:07:22Z</time>
      </trkpt>
      <trkpt lat="43.5303" lon="6.14578">
        <ele>306</ele>
        <time>2026-03-23T13:07:46Z</time>
      </trkpt>
      <trkpt lat="43.53009" lon="6.14589">
        <ele>302</ele>
        <time>2026-03-23T13:08:12Z</time>
      </trkpt>
      <trkpt lat="43.52999" lon="6.14616">
        <ele>302</ele>
        <time>2026-03-23T13:11:04Z</time>
      </trkpt>
      <trkpt lat="43.52999" lon="6.14647">
        <ele>302</ele>
        <time>2026-03-23T13:11:32Z</time>
      </trkpt>
      <trkpt lat="43.53001" lon="6.14677">
        <ele>305</ele>
        <time>2026-03-23T13:12:00Z</time>
      </trkpt>
      <trkpt lat="43.53004" lon="6.14708">
        <ele>308</ele>
        <time>2026-03-23T13:12:34Z</time>
      </trkpt>
      <trkpt lat="43.53007" lon="6.1474">
        <ele>309</ele>
        <time>2026-03-23T13:13:10Z</time>
      </trkpt>
      <trkpt lat="43.53003" lon="6.1477">
        <ele>309</ele>
        <time>2026-03-23T13:13:42Z</time>
      </trkpt>
      <trkpt lat="43.52992" lon="6.14795">
        <ele>310</ele>
        <time>2026-03-23T13:14:14Z</time>
      </trkpt>
      <trkpt lat="43.52977" lon="6.14812">
        <ele>310</ele>
        <time>2026-03-23T13:14:46Z</time>
      </trkpt>
      <trkpt lat="43.52985" lon="6.14828">
        <ele>310</ele>
        <time>2026-03-23T13:16:10Z</time>
      </trkpt>
      <trkpt lat="43.52993" lon="6.14805">
        <ele>310</ele>
        <time>2026-03-23T13:21:12Z</time>
      </trkpt>
      <trkpt lat="43.53001" lon="6.14775">
        <ele>310</ele>
        <time>2026-03-23T13:21:54Z</time>
      </trkpt>
      <trkpt lat="43.53005" lon="6.14745">
        <ele>310</ele>
        <time>2026-03-23T13:22:22Z</time>
      </trkpt>
      <trkpt lat="43.53003" lon="6.14714">
        <ele>310</ele>
        <time>2026-03-23T13:22:50Z</time>
      </trkpt>
      <trkpt lat="43.53" lon="6.14683">
        <ele>309</ele>
        <time>2026-03-23T13:23:16Z</time>
      </trkpt>
      <trkpt lat="43.52996" lon="6.14652">
        <ele>305</ele>
        <time>2026-03-23T13:23:42Z</time>
      </trkpt>
      <trkpt lat="43.52991" lon="6.14625">
        <ele>301</ele>
        <time>2026-03-23T13:24:06Z</time>
      </trkpt>
      <trkpt lat="43.52972" lon="6.14627">
        <ele>295</ele>
        <time>2026-03-23T13:24:58Z</time>
      </trkpt>
      <trkpt lat="43.52969" lon="6.14623">
        <ele>313</ele>
        <time>2026-03-23T13:28:08Z</time>
      </trkpt>
      <trkpt lat="43.52952" lon="6.14643">
        <ele>313</ele>
        <time>2026-03-23T13:28:33Z</time>
      </trkpt>
      <trkpt lat="43.52919" lon="6.14676">
        <ele>306</ele>
        <time>2026-03-23T13:29:20Z</time>
      </trkpt>
      <trkpt lat="43.52914" lon="6.14702">
        <ele>302</ele>
        <time>2026-03-23T13:29:43Z</time>
      </trkpt>
      <trkpt lat="43.529" lon="6.14684">
        <ele>294</ele>
        <time>2026-03-23T13:30:05Z</time>
      </trkpt>
      <trkpt lat="43.529" lon="6.14684">
        <ele>294</ele>
        <time>2026-03-23T13:30:05Z</time>
      </trkpt>
      <trkpt lat="43.52898" lon="6.14682">
        <ele>293</ele>
        <time>2026-03-23T13:30:08Z</time>
      </trkpt>
      <trkpt lat="43.52895" lon="6.14681">
        <ele>292</ele>
        <time>2026-03-23T13:30:11Z</time>
      </trkpt>
      <trkpt lat="43.52895" lon="6.14687">
        <ele>291</ele>
        <time>2026-03-23T13:30:16Z</time>
      </trkpt>
      <trkpt lat="43.52909" lon="6.14784">
        <ele>293</ele>
        <time>2026-03-23T13:31:59Z</time>
      </trkpt>
      <trkpt lat="43.52905" lon="6.14785">
        <ele>288</ele>
        <time>2026-03-23T13:32:03Z</time>
      </trkpt>
      <trkpt lat="43.52871" lon="6.14749">
        <ele>266</ele>
        <time>2026-03-23T13:32:52Z</time>
      </trkpt>
      <trkpt lat="43.52867" lon="6.14761">
        <ele>270</ele>
        <time>2026-03-23T13:39:33Z</time>
      </trkpt>
      <trkpt lat="43.52881" lon="6.1478">
        <ele>268</ele>
        <time>2026-03-23T13:40:41Z</time>
      </trkpt>
      <trkpt lat="43.52895" lon="6.14804">
        <ele>268</ele>
        <time>2026-03-23T13:43:19Z</time>
      </trkpt>
      <trkpt lat="43.52911" lon="6.14822">
        <ele>266</ele>
        <time>2026-03-23T13:44:25Z</time>
      </trkpt>
      <trkpt lat="43.52927" lon="6.14816">
        <ele>264</ele>
        <time>2026-03-23T13:48:51Z</time>
      </trkpt>
      <trkpt lat="43.52912" lon="6.14825">
        <ele>261</ele>
        <time>2026-03-23T13:49:31Z</time>
      </trkpt>
      <trkpt lat="43.52896" lon="6.14833">
        <ele>257</ele>
        <time>2026-03-23T13:53:03Z</time>
      </trkpt>
      <trkpt lat="43.52908" lon="6.14848">
        <ele>254</ele>
        <time>2026-03-23T13:55:39Z</time>
      </trkpt>
      <trkpt lat="43.52909" lon="6.14878">
        <ele>252</ele>
        <time>2026-03-23T13:58:31Z</time>
      </trkpt>
      <trkpt lat="43.52909" lon="6.14909">
        <ele>250</ele>
        <time>2026-03-23T13:59:45Z</time>
      </trkpt>
      <trkpt lat="43.5284" lon="6.14899">
        <ele>235</ele>
        <time>2026-03-23T14:01:05Z</time>
      </trkpt>
      <trkpt lat="43.52831" lon="6.14901">
        <ele>235</ele>
        <time>2026-03-23T14:01:15Z</time>
      </trkpt>
      <trkpt lat="43.5283" lon="6.149">
        <ele>235</ele>
        <time>2026-03-23T14:01:16Z</time>
      </trkpt>
      <trkpt lat="43.52794" lon="6.14923">
        <ele>232</ele>
        <time>2026-03-23T14:02:01Z</time>
      </trkpt>
      <trkpt lat="43.52766" lon="6.14925">
        <ele>230</ele>
        <time>2026-03-23T14:02:34Z</time>
      </trkpt>
      <trkpt lat="43.52728" lon="6.1493">
        <ele>229</ele>
        <time>2026-03-23T14:03:17Z</time>
      </trkpt>
      <trkpt lat="43.52707" lon="6.14936">
        <ele>228</ele>
        <time>2026-03-23T14:03:42Z</time>
      </trkpt>
      <trkpt lat="43.52657" lon="6.14949">
        <ele>224</ele>
        <time>2026-03-23T14:04:41Z</time>
      </trkpt>
      <trkpt lat="43.52665" lon="6.14997">
        <ele>224</ele>
        <time>2026-03-23T14:05:22Z</time>
      </trkpt>
      <trkpt lat="43.52689" lon="6.15131">
        <ele>226</ele>
        <time>2026-03-23T14:07:37Z</time>
      </trkpt>
      <trkpt lat="43.52698" lon="6.15175">
        <ele>229</ele>
        <time>2026-03-23T14:08:45Z</time>
      </trkpt>
      <trkpt lat="43.52701" lon="6.15189">
        <ele>229</ele>
        <time>2026-03-23T14:08:58Z</time>
      </trkpt>
      <trkpt lat="43.52707" lon="6.15189">
        <ele>229</ele>
        <time>2026-03-23T14:09:04Z</time>
      </trkpt>
      <trkpt lat="43.52712" lon="6.15195">
        <ele>229</ele>
        <time>2026-03-23T14:09:12Z</time>
      </trkpt>
      <trkpt lat="43.52713" lon="6.15201">
        <ele>230</ele>
        <time>2026-03-23T14:09:28Z</time>
      </trkpt>
      <trkpt lat="43.52713" lon="6.15204">
        <ele>230</ele>
        <time>2026-03-23T14:09:30Z</time>
      </trkpt>
      <trkpt lat="43.52707" lon="6.15212">
        <ele>230</ele>
        <time>2026-03-23T14:09:39Z</time>
      </trkpt>
      <trkpt lat="43.52711" lon="6.15226">
        <ele>231</ele>
        <time>2026-03-23T14:10:02Z</time>
      </trkpt>
      <trkpt lat="43.52718" lon="6.15247">
        <ele>232</ele>
        <time>2026-03-23T14:10:32Z</time>
      </trkpt>
      <trkpt lat="43.52723" lon="6.15248">
        <ele>232</ele>
        <time>2026-03-23T14:10:38Z</time>
      </trkpt>
      <trkpt lat="43.52739" lon="6.1526">
        <ele>234</ele>
        <time>2026-03-23T14:11:19Z</time>
      </trkpt>
      <trkpt lat="43.52785" lon="6.15314">
        <ele>239</ele>
        <time>2026-03-23T14:13:20Z</time>
      </trkpt>
    </trkseg>
  </trk>
</gpx>